Time;durP1;ratioP1;P1;durP2;ratioP2;P2;SDS_P1;SDS_P2;PMS_P1;PMS_P2;Temp;Humidity;BMP_temperature;BMP_pressure;BME280_temperature;BME280_humidity;BME280_pressure;Samples;Min_cycle;Max_cycle;Signal;HPM_P1;HPM_P2
2024/01/06 00:01:15;;;;;;;6.75;1.30;;;23.20;64.00;;;;;;5029459;28;20030;-79
2024/01/06 00:03:42;;;;;;;5.57;1.20;;;23.20;64.10;;;;;;5027603;28;20164;-77
2024/01/06 00:06:13;;;;;;;7.28;1.33;;;23.20;64.30;;;;;;5030273;28;20037;-80
2024/01/06 00:08:41;;;;;;;7.25;1.52;;;23.20;64.20;;;;;;5029308;28;20029;-78
2024/01/06 00:11:09;;;;;;;6.93;1.92;;;23.20;64.10;;;;;;5028897;28;20036;-78
2024/01/06 00:13:36;;;;;;;12.88;1.98;;;23.20;64.30;;;;;;5036613;28;20033;-76
2024/01/06 00:16:03;;;;;;;5.00;1.30;;;23.20;64.30;;;;;;5032532;28;20052;-77
2024/01/06 00:18:31;;;;;;;7.03;1.20;;;23.20;64.50;;;;;;5026936;28;20026;-77
2024/01/06 00:20:58;;;;;;;7.53;1.33;;;23.20;64.70;;;;;;5034940;28;20061;-76
2024/01/06 00:23:25;;;;;;;7.07;1.55;;;23.20;65.00;;;;;;5024123;28;20033;-78
2024/01/06 00:25:53;;;;;;;5.25;1.40;;;23.20;64.70;;;;;;5029161;28;20042;-82
2024/01/06 00:28:20;;;;;;;7.40;1.38;;;23.20;64.80;;;;;;5032501;28;20120;-77
2024/01/06 00:30:47;;;;;;;10.25;1.48;;;23.20;64.50;;;;;;5028976;28;20021;-78
2024/01/06 00:33:15;;;;;;;6.47;1.55;;;23.20;64.60;;;;;;5031166;28;20112;-77
2024/01/06 00:35:42;;;;;;;4.60;1.15;;;23.30;64.10;;;;;;5032595;28;20018;-77
2024/01/06 00:38:10;;;;;;;5.68;1.70;;;23.30;64.50;;;;;;5031759;28;20037;-82
2024/01/06 00:40:38;;;;;;;5.63;1.58;;;23.30;64.50;;;;;;5038155;28;20060;-77
2024/01/06 00:43:05;;;;;;;4.57;1.52;;;23.30;64.50;;;;;;5033314;28;20032;-78
2024/01/06 00:45:36;;;;;;;4.03;1.10;;;23.40;63.90;;;;;;5034027;28;20063;-77
2024/01/06 00:48:03;;;;;;;7.03;1.23;;;23.40;63.90;;;;;;5029525;28;20049;-77
2024/01/06 00:50:31;;;;;;;10.13;2.45;;;23.40;63.90;;;;;;5017612;28;20084;-84
2024/01/06 00:52:58;;;;;;;7.72;1.65;;;23.40;63.30;;;;;;5014781;28;20029;-80
2024/01/06 00:55:25;;;;;;;9.65;1.50;;;23.50;63.10;;;;;;5022393;28;20026;-79
2024/01/06 00:57:53;;;;;;;6.18;1.30;;;23.60;62.70;;;;;;5027193;28;20041;-79
2024/01/06 01:00:20;;;;;;;9.48;2.88;;;23.70;62.90;;;;;;5030821;28;20026;-83
2024/01/06 01:02:47;;;;;;;8.05;2.28;;;23.70;62.40;;;;;;5026502;28;20030;-80
2024/01/06 01:05:15;;;;;;;7.38;1.85;;;23.80;62.50;;;;;;5021286;28;20079;-80
2024/01/06 01:07:42;;;;;;;9.02;2.00;;;23.90;62.20;;;;;;5020528;28;20038;-79
2024/01/06 01:10:10;;;;;;;5.90;1.60;;;24.00;62.30;;;;;;5026290;28;20033;-78
2024/01/06 01:12:39;;;;;;;11.38;1.67;;;24.30;61.00;;;;;;5034416;28;20029;-77
2024/01/06 01:15:07;;;;;;;5.50;1.30;;;24.30;61.40;;;;;;5052249;28;20387;-77
2024/01/06 01:17:34;;;;;;;6.93;2.05;;;24.40;61.60;;;;;;5035801;28;20033;-80
2024/01/06 01:20:01;;;;;;;6.22;1.73;;;24.50;60.10;;;;;;5037555;28;20504;-77
2024/01/06 01:22:29;;;;;;;8.25;1.45;;;24.60;60.30;;;;;;5033614;28;20033;-82
2024/01/06 01:24:56;;;;;;;6.93;1.88;;;24.80;60.60;;;;;;5033010;28;20025;-78
2024/01/06 01:27:24;;;;;;;7.10;1.50;;;24.90;59.80;;;;;;5035661;28;20040;-84
2024/01/06 01:29:52;;;;;;;7.60;1.65;;;25.00;59.80;;;;;;5033398;28;20399;-83
2024/01/06 01:32:20;;;;;;;5.35;1.40;;;25.10;59.40;;;;;;5045719;28;20476;-81
2024/01/06 01:34:47;;;;;;;10.60;1.52;;;25.10;59.50;;;;;;5038115;28;20030;-83
2024/01/06 01:37:15;;;;;;;7.75;1.70;;;25.10;58.60;;;;;;5031202;28;20029;-77
2024/01/06 01:39:43;;;;;;;6.20;1.80;;;25.10;58.30;;;;;;5023346;28;20075;-76
2024/01/06 01:42:10;;;;;;;8.90;1.20;;;25.00;58.50;;;;;;5032283;28;20030;-78
2024/01/06 01:44:39;;;;;;;7.47;2.00;;;25.00;59.20;;;;;;5031535;28;20022;-78
2024/01/06 01:47:07;;;;;;;8.27;1.85;;;24.90;59.10;;;;;;5033673;28;20033;-82
2024/01/06 01:49:34;;;;;;;6.78;1.80;;;24.90;58.50;;;;;;5033700;28;20018;-83
2024/01/06 01:52:02;;;;;;;6.28;1.30;;;24.80;58.90;;;;;;5040758;28;20110;-81
2024/01/06 01:54:29;;;;;;;7.88;1.90;;;24.80;57.00;;;;;;5039058;28;20029;-84
2024/01/06 01:56:57;;;;;;;5.13;1.40;;;24.80;57.40;;;;;;5032099;28;20037;-80
2024/01/06 01:59:24;;;;;;;6.97;1.50;;;24.80;58.20;;;;;;5033583;28;20025;-82
2024/01/06 02:01:51;;;;;;;5.53;1.50;;;24.70;58.60;;;;;;5033260;28;20026;-82
2024/01/06 02:04:19;;;;;;;7.90;1.67;;;24.70;58.40;;;;;;5032604;28;20052;-78
2024/01/06 02:06:47;;;;;;;9.10;1.75;;;24.70;58.70;;;;;;5045348;28;20044;-79
2024/01/06 02:09:15;;;;;;;5.13;1.77;;;24.80;57.50;;;;;;5050706;28;20476;-78
2024/01/06 02:11:45;;;;;;;6.45;1.60;;;24.70;57.70;;;;;;5042613;28;20041;-79
2024/01/06 02:14:12;;;;;;;3.65;1.02;;;24.80;57.70;;;;;;5020885;28;20018;-80
2024/01/06 02:16:40;;;;;;;5.80;1.52;;;24.80;57.40;;;;;;5012553;28;20022;-80
2024/01/06 02:19:11;;;;;;;9.18;1.73;;;24.80;57.70;;;;;;5019388;28;20095;-77
2024/01/06 02:21:43;;;;;;;8.85;2.10;;;24.80;58.00;;;;;;5032206;28;20488;-82
2024/01/06 02:24:11;;;;;;;7.35;1.65;;;24.80;58.70;;;;;;5021209;28;20056;-83
2024/01/06 02:26:38;;;;;;;5.95;1.80;;;24.90;58.90;;;;;;5012616;28;20036;-77
2024/01/06 02:29:07;;;;;;;10.18;1.95;;;24.90;59.10;;;;;;5018945;28;20029;-79
2024/01/06 02:31:34;;;;;;;4.72;1.42;;;24.90;58.80;;;;;;5041249;28;20107;-77
2024/01/06 02:34:01;;;;;;;4.40;1.40;;;24.90;58.50;;;;;;5032195;28;20051;-82
2024/01/06 02:36:29;;;;;;;4.78;1.45;;;24.90;58.80;;;;;;5019449;28;20028;-83
2024/01/06 02:38:56;;;;;;;8.75;2.40;;;24.90;58.90;;;;;;5012120;28;20108;-81
2024/01/06 02:41:24;;;;;;;9.55;2.33;;;24.90;58.00;;;;;;5012388;28;20354;-79
2024/01/06 02:43:51;;;;;;;8.77;1.80;;;25.00;58.20;;;;;;5012385;28;20110;-83
2024/01/06 02:46:18;;;;;;;4.95;1.50;;;25.10;58.40;;;;;;5012535;28;20029;-76
2024/01/06 02:48:46;;;;;;;5.88;1.27;;;25.20;57.00;;;;;;5013057;28;20037;-83
2024/01/06 02:51:13;;;;;;;7.30;2.15;;;25.20;56.60;;;;;;5022894;28;20018;-83
2024/01/06 02:53:40;;;;;;;5.63;1.52;;;25.30;56.50;;;;;;5032418;28;20029;-81
2024/01/06 02:56:12;;;;;;;5.10;1.20;;;25.30;56.30;;;;;;5032111;28;20104;-77
2024/01/06 02:58:40;;;;;;;6.18;1.48;;;25.30;55.40;;;;;;5032125;28;20029;-77
2024/01/06 03:01:07;;;;;;;4.57;1.27;;;25.30;55.00;;;;;;5032149;28;20034;-77
2024/01/06 03:03:34;;;;;;;6.30;1.23;;;25.20;55.60;;;;;;5041248;28;20107;-77
2024/01/06 03:06:02;;;;;;;3.13;1.30;;;25.20;56.10;;;;;;5031431;28;20033;-84
2024/01/06 03:08:32;;;;;;;6.28;1.45;;;25.20;56.20;;;;;;5031759;28;20041;-80
2024/01/06 03:11:00;;;;;;;5.35;1.30;;;25.30;56.00;;;;;;5030758;28;20024;-81
2024/01/06 03:13:27;;;;;;;6.63;1.63;;;25.30;55.10;;;;;;5032015;28;20357;-77
2024/01/06 03:15:54;;;;;;;15.70;2.13;;;25.40;55.30;;;;;;5033059;28;20032;-83
2024/01/06 03:18:22;;;;;;;6.45;1.40;;;25.50;54.40;;;;;;5024279;28;20033;-82
2024/01/06 03:20:49;;;;;;;4.88;0.93;;;25.60;54.30;;;;;;5031411;28;20489;-77
2024/01/06 03:23:16;;;;;;;7.20;1.58;;;25.60;54.80;;;;;;5043342;28;20456;-77
2024/01/06 03:25:44;;;;;;;7.07;1.50;;;25.70;53.80;;;;;;5035589;28;20032;-77
2024/01/06 03:28:11;;;;;;;3.78;1.40;;;25.70;54.80;;;;;;5052186;28;20159;-82
2024/01/06 03:30:39;;;;;;;6.70;1.73;;;25.80;54.00;;;;;;5048349;28;20553;-83
2024/01/06 03:33:07;;;;;;;3.63;1.00;;;25.80;54.10;;;;;;5043594;28;20037;-78
2024/01/06 03:35:34;;;;;;;4.63;1.42;;;25.80;53.20;;;;;;5029463;28;20021;-81
2024/01/06 03:38:02;;;;;;;6.97;1.90;;;25.90;53.30;;;;;;5011990;28;20049;-77
2024/01/06 03:40:29;;;;;;;5.03;1.58;;;26.00;53.20;;;;;;5012250;28;20026;-77
2024/01/06 03:42:56;;;;;;;3.95;1.48;;;26.10;53.30;;;;;;5034666;28;20033;-83
2024/01/06 03:45:24;;;;;;;3.28;1.10;;;26.20;53.50;;;;;;5035305;28;20029;-83
2024/01/06 03:47:51;;;;;;;7.43;1.63;;;26.30;53.30;;;;;;5031807;28;20063;-78
2024/01/06 03:50:18;;;;;;;5.40;1.58;;;26.30;53.50;;;;;;5034308;28;20060;-78
2024/01/06 03:52:46;;;;;;;4.97;1.40;;;26.30;53.50;;;;;;5042047;28;20118;-81
2024/01/06 03:55:13;;;;;;;3.42;1.30;;;26.30;53.10;;;;;;5054578;28;20383;-80
2024/01/06 03:57:41;;;;;;;4.78;1.33;;;26.40;53.10;;;;;;5055598;28;20484;-85
2024/01/06 04:00:09;;;;;;;5.78;1.33;;;26.40;53.00;;;;;;5055558;28;20079;-77
2024/01/06 04:02:36;;;;;;;3.20;1.30;;;26.50;52.60;;;;;;5055030;28;20166;-84
2024/01/06 04:05:05;;;;;;;5.53;1.60;;;26.50;52.80;;;;;;5053990;28;20032;-84
2024/01/06 04:07:32;;;;;;;7.80;1.20;;;26.50;53.40;;;;;;5050652;28;20059;-77
2024/01/06 04:09:59;;;;;;;6.22;1.35;;;26.50;53.00;;;;;;5054986;28;20049;-77
2024/01/06 04:12:27;;;;;;;5.43;1.33;;;26.50;52.70;;;;;;5050949;28;20096;-82
2024/01/06 04:14:54;;;;;;;4.20;1.20;;;26.40;52.70;;;;;;5038446;28;20021;-76
2024/01/06 04:17:21;;;;;;;7.88;1.60;;;26.50;52.50;;;;;;5039706;28;20488;-81
2024/01/06 04:19:49;;;;;;;4.15;1.25;;;26.40;52.90;;;;;;5038031;28;20398;-84
2024/01/06 04:22:16;;;;;;;6.35;1.50;;;26.40;53.60;;;;;;5034896;28;20583;-82
2024/01/06 04:24:44;;;;;;;9.75;1.60;;;26.50;53.60;;;;;;5036445;28;20033;-80
2024/01/06 04:27:11;;;;;;;3.55;1.30;;;26.40;53.60;;;;;;5049370;28;20025;-84
2024/01/06 04:29:39;;;;;;;5.78;1.55;;;26.40;53.90;;;;;;5034523;28;20025;-83
2024/01/06 04:32:07;;;;;;;9.45;2.00;;;26.40;54.70;;;;;;5034234;28;20025;-80
2024/01/06 04:34:35;;;;;;;7.50;1.50;;;26.40;54.90;;;;;;5038994;28;20049;-80
2024/01/06 04:37:02;;;;;;;7.20;1.60;;;26.40;55.50;;;;;;5053409;28;20391;-82
2024/01/06 04:39:29;;;;;;;8.90;1.50;;;26.50;55.60;;;;;;5036876;28;20028;-77
2024/01/06 04:41:57;;;;;;;7.43;1.67;;;26.40;55.60;;;;;;5044265;28;20031;-78
2024/01/06 04:44:25;;;;;;;8.38;1.42;;;26.40;55.80;;;;;;5044579;28;20521;-83
2024/01/06 04:46:52;;;;;;;6.85;1.85;;;26.40;55.70;;;;;;5051982;28;20188;-80
2024/01/06 04:49:19;;;;;;;9.30;1.80;;;26.40;55.80;;;;;;5051700;28;20507;-82
2024/01/06 04:51:49;;;;;;;5.90;1.60;;;26.40;56.10;;;;;;5042289;28;20427;-82
2024/01/06 04:54:16;;;;;;;8.48;1.52;;;26.40;55.90;;;;;;5042254;28;20034;-81
2024/01/06 04:56:44;;;;;;;7.60;1.40;;;26.40;55.80;;;;;;5053647;28;20488;-78
2024/01/06 04:59:11;;;;;;;6.63;1.60;;;26.30;55.50;;;;;;5051871;28;20037;-83
2024/01/06 05:01:39;;;;;;;6.30;1.58;;;26.40;55.70;;;;;;5033511;28;20024;-81
2024/01/06 05:04:06;;;;;;;10.52;1.73;;;26.40;55.60;;;;;;5033010;28;20559;-81
2024/01/06 05:06:34;;;;;;;8.40;1.65;;;26.40;55.20;;;;;;5033156;28;20056;-80
2024/01/06 05:09:02;;;;;;;10.25;1.90;;;26.40;55.70;;;;;;5033675;28;20037;-80
2024/01/06 05:11:29;;;;;;;6.53;1.50;;;26.40;55.70;;;;;;5033455;28;20025;-81
2024/01/06 05:13:56;;;;;;;5.93;1.50;;;26.30;56.00;;;;;;5033808;28;20052;-78
2024/01/06 05:16:24;;;;;;;9.55;1.90;;;26.40;55.90;;;;;;5036531;28;20545;-76
2024/01/06 05:18:51;;;;;;;4.43;2.35;;;26.40;56.00;;;;;;5032879;28;20488;-78
2024/01/06 05:21:20;;;;;;;5.32;1.50;;;26.40;56.20;;;;;;5032687;28;20022;-82
2024/01/06 05:23:47;;;;;;;8.05;2.00;;;26.40;55.40;;;;;;5036432;28;20116;-81
2024/01/06 05:26:15;;;;;;;6.70;1.70;;;26.40;55.50;;;;;;5033049;28;20401;-81
2024/01/06 05:28:42;;;;;;;9.90;1.73;;;26.40;56.00;;;;;;5031973;28;20481;-79
2024/01/06 05:31:10;;;;;;;6.60;1.70;;;26.40;56.50;;;;;;5039922;28;20392;-81
2024/01/06 05:33:37;;;;;;;4.75;1.50;;;26.30;56.70;;;;;;5032674;28;20506;-76
2024/01/06 05:36:05;;;;;;;9.02;1.50;;;26.30;56.50;;;;;;5030911;28;20033;-78
2024/01/06 05:38:32;;;;;;;7.90;1.42;;;26.40;56.80;;;;;;5031196;28;20021;-81
2024/01/06 05:41:00;;;;;;;4.30;1.45;;;26.30;56.60;;;;;;5033576;28;20147;-82
2024/01/06 05:43:27;;;;;;;6.47;1.50;;;26.30;55.90;;;;;;5029577;28;20449;-79
2024/01/06 05:45:55;;;;;;;8.15;1.80;;;26.30;56.00;;;;;;5031361;28;20056;-83
2024/01/06 05:48:22;;;;;;;5.68;1.42;;;26.30;55.80;;;;;;5030961;28;20041;-81
2024/01/06 05:50:49;;;;;;;4.88;1.30;;;26.30;55.10;;;;;;5032117;28;20092;-83
2024/01/06 05:53:18;;;;;;;3.17;1.45;;;26.30;55.50;;;;;;5032022;28;20040;-78
2024/01/06 05:55:47;;;;;;;7.25;1.60;;;26.40;55.70;;;;;;5031145;28;20021;-83
2024/01/06 05:58:14;;;;;;;5.78;1.60;;;26.50;55.60;;;;;;5026475;28;20519;-82
2024/01/06 06:00:41;;;;;;;8.52;1.92;;;26.50;55.20;;;;;;5030252;28;20033;-77
2024/01/06 06:03:09;;;;;;;7.60;1.50;;;26.50;55.00;;;;;;5028003;28;20037;-76
2024/01/06 06:05:36;;;;;;;7.68;1.80;;;26.50;55.20;;;;;;5031566;28;20041;-82
2024/01/06 06:08:04;;;;;;;7.53;1.83;;;26.50;55.20;;;;;;5040713;28;20045;-78
2024/01/06 06:10:41;;;;;;;8.20;1.60;;;26.50;55.00;;;;;;5029678;28;20021;-83
2024/01/06 06:13:11;;;;;;;6.30;1.60;;;26.50;54.60;;;;;;5030772;28;20025;-78
2024/01/06 06:15:38;;;;;;;9.77;2.08;;;26.50;54.70;;;;;;5032837;28;20472;-79
2024/01/06 06:18:06;;;;;;;9.05;1.50;;;26.50;54.60;;;;;;5032397;28;20527;-82
2024/01/06 06:20:35;;;;;;;6.80;1.40;;;26.60;55.00;;;;;;5033091;28;20022;-77
2024/01/06 06:23:02;;;;;;;6.13;1.63;;;26.60;55.60;;;;;;5033116;28;20017;-76
2024/01/06 06:25:29;;;;;;;8.52;1.45;;;26.50;55.30;;;;;;5032585;28;20029;-76
2024/01/06 06:27:57;;;;;;;5.53;1.40;;;26.50;55.00;;;;;;5035793;28;20048;-77
2024/01/06 06:30:24;;;;;;;7.43;1.90;;;26.50;55.10;;;;;;5030670;28;20021;-77
2024/01/06 06:32:51;;;;;;;7.05;1.45;;;26.50;55.00;;;;;;5032095;28;20040;-81
2024/01/06 06:35:19;;;;;;;9.75;2.00;;;26.50;55.10;;;;;;5030793;28;20022;-76
2024/01/06 06:37:46;;;;;;;8.23;1.60;;;26.50;55.10;;;;;;5029777;28;20042;-79
2024/01/06 06:40:13;;;;;;;7.97;1.98;;;26.50;55.10;;;;;;5052509;28;20036;-77
2024/01/06 06:42:41;;;;;;;12.10;1.60;;;26.50;55.40;;;;;;5052693;28;20454;-78
2024/01/06 06:45:11;;;;;;;8.40;1.58;;;26.50;54.80;;;;;;5050161;28;20047;-81
2024/01/06 06:47:39;;;;;;;4.90;1.65;;;26.40;55.80;;;;;;5052732;28;20476;-83
2024/01/06 06:50:06;;;;;;;6.95;1.48;;;26.30;56.10;;;;;;5052492;28;20044;-78
2024/01/06 06:52:34;;;;;;;8.30;1.92;;;26.30;56.40;;;;;;5052845;28;20028;-78
2024/01/06 06:55:01;;;;;;;9.35;1.95;;;26.30;56.40;;;;;;5052839;28;20024;-76
2024/01/06 06:57:28;;;;;;;4.57;1.75;;;26.20;56.60;;;;;;5035330;28;20109;-81
2024/01/06 06:59:56;;;;;;;8.77;2.13;;;26.10;57.00;;;;;;5050766;28;20056;-78
2024/01/06 07:02:23;;;;;;;8.35;1.90;;;26.10;57.30;;;;;;5052879;28;20480;-78
2024/01/06 07:04:51;;;;;;;10.70;1.85;;;26.10;57.30;;;;;;5052149;28;20041;-77
2024/01/06 07:07:18;;;;;;;8.98;1.70;;;26.10;57.30;;;;;;5052366;28;20032;-77
2024/01/06 07:09:46;;;;;;;10.70;1.90;;;26.10;57.00;;;;;;5052230;28;20040;-77
2024/01/06 07:12:13;;;;;;;10.50;2.47;;;26.10;57.20;;;;;;5051174;28;20477;-79
2024/01/06 07:14:40;;;;;;;10.07;1.92;;;26.20;57.40;;;;;;5052448;28;20029;-77
2024/01/06 07:17:08;;;;;;;5.30;1.58;;;26.20;57.00;;;;;;5052473;28;20039;-77
2024/01/06 07:19:37;;;;;;;6.43;2.22;;;26.20;57.30;;;;;;5052180;28;20048;-77
2024/01/06 07:22:05;;;;;;;8.15;2.00;;;26.20;57.20;;;;;;5049834;28;20048;-77
2024/01/06 07:24:32;;;;;;;9.02;1.77;;;26.20;57.10;;;;;;5055041;28;20073;-77
2024/01/06 07:26:59;;;;;;;11.75;1.77;;;26.20;57.50;;;;;;5056134;28;20087;-77
2024/01/06 07:29:27;;;;;;;5.63;1.73;;;26.20;56.70;;;;;;5056310;28;20071;-78
2024/01/06 07:31:54;;;;;;;7.30;2.25;;;26.20;56.90;;;;;;5054578;28;20074;-78
2024/01/06 07:34:22;;;;;;;6.80;2.33;;;26.20;56.60;;;;;;5054699;28;20035;-77
2024/01/06 07:36:49;;;;;;;6.20;1.55;;;26.30;56.40;;;;;;5053794;28;20017;-76
2024/01/06 07:39:16;;;;;;;10.65;2.00;;;26.30;56.20;;;;;;5054053;28;20033;-77
2024/01/06 07:41:46;;;;;;;6.13;2.03;;;26.20;56.10;;;;;;5054324;28;20021;-78
2024/01/06 07:44:15;;;;;;;5.82;1.65;;;26.20;56.00;;;;;;5054968;28;20029;-78
2024/01/06 07:46:43;;;;;;;7.45;1.80;;;26.20;56.20;;;;;;5043483;28;20025;-78
2024/01/06 07:49:10;;;;;;;10.02;4.97;;;26.10;56.60;;;;;;5035978;28;20038;-79
2024/01/06 07:51:38;;;;;;;8.75;2.40;;;26.10;55.80;;;;;;5036119;28;20014;-78
2024/01/06 07:54:08;;;;;;;6.90;2.28;;;26.00;55.80;;;;;;5036205;28;20117;-78
2024/01/06 07:56:36;;;;;;;14.30;2.90;;;26.00;56.20;;;;;;5055756;28;20491;-78
2024/01/06 07:59:04;;;;;;;8.80;1.80;;;26.00;56.50;;;;;;5055788;28;20035;-78
2024/01/06 08:01:31;;;;;;;8.95;2.33;;;25.80;56.40;;;;;;5055535;28;20093;-77
2024/01/06 08:04:00;;;;;;;10.40;2.33;;;25.80;56.60;;;;;;5054932;28;20128;-77
2024/01/06 08:06:27;;;;;;;5.03;1.80;;;25.80;56.70;;;;;;5055354;28;20021;-78
2024/01/06 08:08:55;;;;;;;10.30;2.40;;;25.70;57.10;;;;;;5055428;28;20029;-77
2024/01/06 08:11:22;;;;;;;9.15;2.35;;;25.60;56.70;;;;;;5055464;28;20021;-77
2024/01/06 08:13:50;;;;;;;5.25;1.60;;;25.60;57.10;;;;;;5034495;28;20396;-78
2024/01/06 08:16:17;;;;;;;5.47;1.92;;;25.50;57.30;;;;;;5038332;28;20021;-77
2024/01/06 08:18:45;;;;;;;6.75;2.00;;;25.40;57.80;;;;;;5052742;28;20027;-76
2024/01/06 08:21:13;;;;;;;9.35;2.50;;;25.30;57.40;;;;;;5033759;28;20029;-78
2024/01/06 08:23:40;;;;;;;8.00;1.92;;;25.30;57.20;;;;;;5034875;28;20030;-78
2024/01/06 08:26:08;;;;;;;9.43;2.67;;;25.20;57.80;;;;;;5034845;28;20380;-79
2024/01/06 08:28:35;;;;;;;8.10;2.58;;;25.10;58.10;;;;;;5034675;28;20065;-77
2024/01/06 08:31:02;;;;;;;6.80;1.85;;;25.10;58.10;;;;;;5031549;28;20076;-77
2024/01/06 08:33:30;;;;;;;13.45;2.50;;;25.00;58.60;;;;;;5014740;28;20584;-77
2024/01/06 08:35:57;;;;;;;10.73;1.90;;;25.00;58.90;;;;;;5014660;28;20018;-76
2024/01/06 08:38:25;;;;;;;9.23;2.10;;;24.90;58.40;;;;;;5050323;28;20063;-77
2024/01/06 08:40:53;;;;;;;11.52;2.10;;;24.80;58.60;;;;;;5054387;28;20064;-77
2024/01/06 08:43:20;;;;;;;8.63;2.47;;;24.80;58.60;;;;;;5054874;28;20070;-78
2024/01/06 08:45:48;;;;;;;10.38;2.30;;;24.80;58.60;;;;;;5054581;28;20021;-82
2024/01/06 08:48:15;;;;;;;8.77;2.33;;;24.70;58.80;;;;;;5054872;28;20044;-78
2024/01/06 08:50:43;;;;;;;8.45;2.03;;;24.60;58.60;;;;;;5054802;28;20024;-78
2024/01/06 08:53:10;;;;;;;7.72;1.80;;;24.60;58.70;;;;;;5054623;28;20029;-77
2024/01/06 08:55:39;;;;;;;4.97;1.48;;;24.50;59.20;;;;;;5054419;28;20044;-77
2024/01/06 08:58:06;;;;;;;6.78;1.73;;;24.50;59.40;;;;;;5050794;28;20036;-79
2024/01/06 09:00:33;;;;;;;8.88;2.10;;;24.50;59.60;;;;;;5053413;28;20029;-77
2024/01/06 09:03:00;;;;;;;9.27;1.80;;;24.50;59.40;;;;;;5054239;28;20389;-77
2024/01/06 09:05:29;;;;;;;6.65;1.60;;;24.40;59.50;;;;;;5054405;28;20466;-78
2024/01/06 09:07:56;;;;;;;5.10;1.77;;;24.40;59.90;;;;;;5054006;28;20083;-78
2024/01/06 09:10:23;;;;;;;11.20;2.20;;;24.30;59.50;;;;;;5054236;28;20469;-80
2024/01/06 09:12:51;;;;;;;9.38;1.92;;;24.30;59.90;;;;;;5054074;28;20036;-78
2024/01/06 09:15:18;;;;;;;8.00;2.30;;;24.30;60.00;;;;;;5054096;28;20017;-79
2024/01/06 09:17:45;;;;;;;11.65;4.50;;;24.20;60.70;;;;;;5051556;28;20029;-81
2024/01/06 09:20:13;;;;;;;7.90;3.30;;;24.20;60.90;;;;;;5054750;28;20021;-78
2024/01/06 09:22:40;;;;;;;12.02;3.10;;;24.20;61.20;;;;;;5027399;28;20033;-77
2024/01/06 09:25:08;;;;;;;13.75;2.90;;;24.10;61.50;;;;;;5032305;28;20017;-78
2024/01/06 09:27:35;;;;;;;10.32;2.42;;;24.10;61.50;;;;;;5027849;28;20037;-79
2024/01/06 09:30:03;;;;;;;8.57;2.58;;;24.00;61.70;;;;;;5013485;28;20564;-79
2024/01/06 09:32:30;;;;;;;11.13;2.50;;;24.00;61.80;;;;;;5043835;28;20112;-79
2024/01/06 09:34:58;;;;;;;8.27;2.20;;;24.00;61.90;;;;;;5053244;28;20404;-77
2024/01/06 09:37:25;;;;;;;8.45;2.00;;;24.00;62.20;;;;;;5052142;28;20519;-77
2024/01/06 09:39:54;;;;;;;13.02;2.60;;;24.00;62.30;;;;;;5046422;28;20524;-78
2024/01/06 09:42:21;;;;;;;9.18;2.28;;;24.00;62.40;;;;;;5033344;28;20310;-78
2024/01/06 09:44:48;;;;;;;8.70;1.77;;;23.90;62.50;;;;;;5033261;28;20116;-77
2024/01/06 09:47:18;;;;;;;7.35;1.92;;;23.90;62.80;;;;;;5032500;28;20123;-82
2024/01/06 09:49:50;;;;;;;9.88;2.15;;;23.90;62.60;;;;;;5033035;28;20037;-78
2024/01/06 09:52:23;;;;;;;6.47;2.13;;;23.80;62.60;;;;;;5032412;28;20138;-78
2024/01/06 09:54:53;;;;;;;9.20;2.05;;;23.80;63.00;;;;;;5036198;28;20131;-77
2024/01/06 09:57:24;;;;;;;8.35;1.90;;;23.80;62.80;;;;;;5053335;28;20344;-77
2024/01/06 09:59:53;;;;;;;7.97;1.90;;;23.70;63.00;;;;;;5053239;28;20476;-78
2024/01/06 10:02:22;;;;;;;11.90;2.63;;;23.70;63.00;;;;;;5053702;28;20052;-83
2024/01/06 10:04:51;;;;;;;10.68;2.40;;;23.70;62.90;;;;;;5052954;28;20063;-82
2024/01/06 10:07:18;;;;;;;7.93;1.75;;;23.60;63.20;;;;;;5052896;28;20344;-78
2024/01/06 10:09:45;;;;;;;7.65;2.35;;;23.60;63.40;;;;;;5052876;28;20032;-78
2024/01/06 10:12:13;;;;;;;10.25;2.33;;;23.60;63.40;;;;;;5053058;28;20151;-79
2024/01/06 10:14:40;;;;;;;7.53;1.60;;;23.60;63.70;;;;;;5052997;28;20380;-79
2024/01/06 10:17:08;;;;;;;8.23;1.83;;;23.60;63.70;;;;;;5053085;28;20096;-82
2024/01/06 10:19:38;;;;;;;12.07;2.50;;;23.60;63.80;;;;;;5050361;28;20060;-78
2024/01/06 10:22:06;;;;;;;12.23;2.95;;;23.50;63.50;;;;;;5052921;28;20021;-78
2024/01/06 10:24:37;;;;;;;9.52;2.10;;;23.50;63.80;;;;;;5052896;28;20028;-78
2024/01/06 10:27:05;;;;;;;7.50;1.80;;;23.50;63.80;;;;;;5051554;28;20484;-80
2024/01/06 10:29:32;;;;;;;7.93;1.90;;;23.50;63.90;;;;;;5045594;28;20139;-83
2024/01/06 10:32:00;;;;;;;5.63;1.60;;;23.40;63.90;;;;;;5052648;28;20017;-78
2024/01/06 10:34:27;;;;;;;10.13;2.00;;;23.40;63.90;;;;;;5052501;28;20045;-79
2024/01/06 10:36:55;;;;;;;6.10;1.40;;;23.40;64.00;;;;;;5052801;28;20032;-81
2024/01/06 10:39:23;;;;;;;10.48;1.77;;;23.30;64.20;;;;;;5045637;28;20056;-79
2024/01/06 10:41:51;;;;;;;8.55;1.98;;;23.30;64.30;;;;;;5032641;28;20029;-78
2024/01/06 10:44:19;;;;;;;8.73;2.05;;;23.30;64.40;;;;;;5032741;28;20021;-82
2024/01/06 10:46:48;;;;;;;12.40;2.15;;;23.30;64.40;;;;;;5032490;28;20051;-78
2024/01/06 10:49:17;;;;;;;7.65;2.22;;;23.30;64.50;;;;;;5032630;28;20112;-84
2024/01/06 10:51:46;;;;;;;9.13;2.53;;;23.30;64.50;;;;;;5042813;28;20484;-79
2024/01/06 10:54:14;;;;;;;8.23;2.10;;;23.30;64.50;;;;;;5051242;28;20075;-78
2024/01/06 10:56:44;;;;;;;7.70;1.85;;;23.30;64.20;;;;;;5052451;28;20036;-78
2024/01/06 10:59:13;;;;;;;8.98;1.88;;;23.20;64.20;;;;;;5046943;28;20489;-83
2024/01/06 11:01:42;;;;;;;7.60;1.90;;;23.30;64.00;;;;;;5036615;28;20040;-77
2024/01/06 11:04:10;;;;;;;11.15;2.00;;;23.20;63.90;;;;;;5036396;28;20522;-78
2024/01/06 11:06:39;;;;;;;10.07;2.03;;;23.20;63.90;;;;;;5036532;28;20083;-78
2024/01/06 11:09:12;;;;;;;6.60;1.52;;;23.20;63.90;;;;;;5035422;28;20116;-78
2024/01/06 11:11:40;;;;;;;8.23;1.70;;;23.20;63.90;;;;;;5036517;28;20116;-78
2024/01/06 11:14:22;;;;;;;6.28;1.63;;;23.20;64.10;;;;;;5036428;28;20036;-78
2024/01/06 11:16:50;;;;;;;6.43;1.52;;;23.20;64.20;;;;;;5036488;28;20028;-77
2024/01/06 11:19:37;;;;;;;5.60;1.40;;;23.20;64.10;;;;;;5036333;28;20116;-78
2024/01/06 11:22:18;;;;;;;;;;;23.20;64.10;;;;;;5036613;28;20488;-76
2024/01/06 11:24:51;;;;;;;8.43;1.50;;;23.10;64.10;;;;;;5036232;28;19905;-77
2024/01/06 11:27:28;;;;;;;6.18;1.70;;;23.10;64.00;;;;;;5051654;28;20033;-77
2024/01/06 11:30:05;;;;;;;8.15;1.67;;;23.10;64.30;;;;;;5053525;28;20037;-78
2024/01/06 11:32:38;;;;;;;7.97;1.55;;;23.10;64.00;;;;;;5055306;28;20049;-77
2024/01/06 11:35:15;;;;;;;6.57;1.70;;;23.10;64.50;;;;;;5056108;28;20021;-80
2024/01/06 11:37:43;;;;;;;8.15;1.60;;;23.10;64.40;;;;;;5055865;28;20021;-78
2024/01/06 11:40:26;;;;;;;11.38;2.17;;;23.10;64.60;;;;;;5055974;28;20028;-77
2024/01/06 11:43:07;;;;;;;7.43;1.48;;;23.10;64.70;;;;;;5055918;28;20529;-77
2024/01/06 11:45:41;;;;;;;7.22;1.70;;;23.00;64.70;;;;;;5052758;28;20045;-77
2024/01/06 11:48:12;;;;;;;9.48;2.05;;;23.00;64.70;;;;;;5035733;28;20040;-77
2024/01/06 11:50:40;;;;;;;9.13;1.85;;;23.00;64.80;;;;;;5035815;28;20077;-78
2024/01/06 11:53:11;;;;;;;7.25;1.45;;;23.00;64.70;;;;;;5024177;28;20034;-78
2024/01/06 11:55:42;;;;;;;5.53;1.45;;;23.00;64.80;;;;;;5034682;28;20026;-78
2024/01/06 11:58:10;;;;;;;5.38;1.25;;;23.00;65.00;;;;;;5028566;28;20041;-77
2024/01/06 12:00:39;;;;;;;10.15;1.85;;;23.00;65.10;;;;;;5015616;28;20105;-78
2024/01/06 12:03:06;;;;;;;7.07;1.30;;;23.00;65.00;;;;;;5015263;28;20489;-80
2024/01/06 12:05:33;;;;;;;10.10;1.70;;;23.00;64.80;;;;;;5029765;28;20139;-81
2024/01/06 12:08:06;;;;;;;9.15;1.90;;;22.90;64.70;;;;;;5032310;28;20029;-81
2024/01/06 12:10:34;;;;;;;9.38;2.60;;;22.90;64.80;;;;;;5029806;28;20088;-76
2024/01/06 12:13:10;;;;;;;7.18;1.40;;;22.90;64.70;;;;;;5034131;28;20481;-80
2024/01/06 12:15:39;;;;;;;6.50;1.20;;;22.90;64.60;;;;;;5034452;28;20049;-79
2024/01/06 12:18:07;;;;;;;5.65;1.58;;;22.80;64.70;;;;;;5034285;28;20040;-83
2024/01/06 12:20:34;;;;;;;4.30;1.20;;;22.90;64.70;;;;;;5034081;28;20030;-77
2024/01/06 12:23:05;;;;;;;5.40;1.70;;;22.90;64.60;;;;;;5033469;28;20117;-77
2024/01/06 12:25:35;;;;;;;8.55;1.52;;;22.90;64.60;;;;;;5036225;28;20021;-81
2024/01/06 12:28:03;;;;;;;5.60;1.42;;;22.90;64.80;;;;;;5050434;28;20041;-78
2024/01/06 12:30:31;;;;;;;7.35;1.20;;;22.80;64.60;;;;;;5038266;28;20060;-77
2024/01/06 12:33:00;;;;;;;7.15;1.65;;;22.80;64.70;;;;;;5049212;28;20029;-78
2024/01/06 12:35:28;;;;;;;7.18;1.63;;;22.80;64.40;;;;;;5050232;28;20033;-83
2024/01/06 12:37:55;;;;;;;11.13;1.67;;;22.80;64.30;;;;;;5043366;28;20040;-78
2024/01/06 12:40:23;;;;;;;12.50;1.80;;;22.80;64.30;;;;;;5031835;28;20037;-79
2024/01/06 12:42:50;;;;;;;7.13;1.27;;;22.80;64.50;;;;;;5038418;28;20415;-78
2024/01/06 12:45:18;;;;;;;6.30;1.50;;;22.80;64.80;;;;;;5033394;28;20552;-78
2024/01/06 12:47:45;;;;;;;7.90;1.65;;;22.80;65.00;;;;;;5045682;28;20094;-81
2024/01/06 12:50:14;;;;;;;6.65;1.80;;;22.80;65.10;;;;;;5031049;28;20017;-78